createdAt,value
2018-09-30T00:00:06.276Z,88.79
2018-09-30T00:01:06.208Z,88.51
2018-09-30T00:02:06.187Z,88.70
2018-09-30T00:03:06.164Z,88.32
2018-09-30T00:04:06.144Z,88.70
2018-09-30T00:05:06.123Z,88.32
2018-09-30T00:06:06.100Z,88.79
2018-09-30T00:07:06.078Z,88.94
2018-09-30T00:08:06.062Z,88.51
2018-09-30T00:09:06.035Z,88.37
2018-09-30T00:10:06.013Z,88.28
2018-09-30T00:11:05.990Z,88.85
2018-09-30T00:12:05.968Z,89.42
2018-09-30T00:13:05.948Z,89.61
2018-09-30T00:14:05.927Z,89.99
2018-09-30T00:15:05.904Z,90.08
2018-09-30T00:16:05.882Z,89.80
2018-09-30T00:17:05.918Z,89.70
2018-09-30T00:18:05.839Z,89.51
2018-09-30T00:19:05.815Z,89.61
2018-09-30T00:20:05.797Z,89.51
2018-09-30T00:21:05.772Z,89.51
2018-09-30T00:22:05.752Z,89.23
2018-09-30T00:23:05.729Z,89.04
2018-09-30T00:24:05.707Z,89.32
2018-09-30T00:25:05.686Z,89.32
2018-09-30T00:26:05.663Z,89.32
2018-09-30T00:27:05.646Z,89.51
2018-09-30T00:28:05.621Z,88.94
2018-09-30T00:29:05.599Z,88.94
2018-09-30T00:30:05.575Z,88.66
2018-09-30T00:31:05.599Z,88.66
2018-09-30T00:32:05.533Z,87.90
2018-09-30T00:33:05.511Z,88.28
2018-09-30T00:34:05.489Z,88.09
2018-09-30T00:35:05.467Z,88.18
2018-09-30T00:36:05.446Z,87.99
2018-09-30T00:37:05.424Z,88.18
2018-09-30T00:38:05.400Z,88.28
2018-09-30T00:39:05.380Z,87.99
2018-09-30T00:40:05.356Z,88.09
2018-09-30T00:41:05.335Z,87.99
2018-09-30T00:42:05.319Z,88.28
2018-09-30T00:43:05.296Z,88.18
2018-09-30T00:44:05.271Z,87.99
2018-09-30T00:45:05.248Z,88.37
2018-09-30T00:46:05.224Z,88.94
2018-09-30T00:47:05.203Z,88.56
2018-09-30T00:48:05.181Z,88.85
2018-09-30T00:49:05.163Z,89.42
2018-09-30T00:50:05.138Z,88.66
2018-09-30T00:51:05.114Z,88.94
2018-09-30T00:52:05.093Z,88.66
2018-09-30T00:53:05.070Z,88.75
2018-09-30T00:54:05.053Z,88.46
2018-09-30T00:55:05.045Z,88.75
2018-09-30T00:56:05.005Z,88.66
2018-09-30T00:57:04.995Z,88.37
2018-09-30T00:58:04.960Z,88.94
2018-09-30T00:59:04.942Z,89.14
2018-09-30T01:00:04.915Z,89.04
2018-09-30T01:01:04.903Z,89.14
2018-09-30T01:02:04.875Z,89.14
2018-09-30T01:03:04.855Z,89.14
2018-09-30T01:04:04.827Z,89.37
2018-09-30T01:05:04.805Z,89.56
2018-09-30T01:06:04.784Z,89.37
2018-09-30T01:07:04.760Z,89.28
2018-09-30T01:08:04.746Z,89.37
2018-09-30T01:09:04.721Z,89.00
2018-09-30T01:10:04.695Z,89.37
2018-09-30T01:11:04.673Z,89.09
2018-09-30T01:12:04.651Z,89.18
2018-09-30T01:13:04.628Z,89.37
2018-09-30T01:14:04.612Z,89.28
2018-09-30T01:15:04.595Z,89.00
2018-09-30T01:16:04.561Z,89.09
2018-09-30T01:17:04.540Z,89.00
2018-09-30T01:18:04.517Z,89.47
2018-09-30T01:19:04.502Z,89.66
2018-09-30T01:20:04.473Z,90.04
2018-09-30T01:21:04.451Z,90.33
2018-09-30T01:22:04.433Z,90.33
2018-09-30T01:23:04.410Z,90.14
2018-09-30T01:24:04.388Z,90.23
2018-09-30T01:25:04.363Z,89.85
2018-09-30T01:26:04.341Z,90.33
2018-09-30T01:27:04.317Z,90.04
2018-09-30T01:28:04.301Z,90.33
2018-09-30T01:29:04.274Z,90.04
2018-09-30T01:30:04.251Z,90.75
2018-09-30T01:31:04.227Z,90.80
2018-09-30T01:32:04.209Z,90.80
2018-09-30T01:33:04.187Z,90.99
2018-09-30T01:34:04.164Z,91.08
2018-09-30T01:35:04.139Z,90.89
2018-09-30T01:36:04.117Z,90.99
2018-09-30T01:37:04.096Z,91.08
2018-09-30T01:38:04.074Z,91.08
2018-09-30T01:39:04.050Z,90.89
2018-09-30T01:40:04.029Z,90.70
2018-09-30T01:41:04.006Z,90.14
2018-09-30T01:42:03.987Z,90.42
2018-09-30T01:43:03.961Z,90.70
2018-09-30T01:44:03.941Z,90.99
2018-09-30T01:45:03.918Z,90.80
2018-09-30T01:46:03.895Z,90.70
2018-09-30T01:47:03.873Z,90.80
2018-09-30T01:48:03.850Z,90.42
2018-09-30T01:49:03.830Z,90.52
2018-09-30T01:50:03.806Z,90.14
2018-09-30T01:51:03.784Z,90.33
2018-09-30T01:52:03.765Z,90.14
2018-09-30T01:53:03.739Z,89.94
2018-09-30T01:54:03.720Z,90.14
2018-09-30T01:55:03.694Z,90.33
2018-09-30T01:56:03.676Z,90.28
2018-09-30T01:57:03.649Z,90.04
2018-09-30T01:58:03.629Z,90.04
2018-09-30T01:59:03.608Z,90.42
2018-09-30T02:00:03.583Z,90.70
2018-09-30T02:01:03.564Z,90.42
2018-09-30T02:02:03.538Z,90.70
2018-09-30T02:03:03.518Z,90.42
2018-09-30T02:04:03.493Z,90.42
2018-09-30T02:05:03.472Z,90.42
2018-09-30T02:06:03.451Z,90.52
2018-09-30T02:07:03.430Z,90.14
2018-09-30T02:08:03.409Z,90.61
2018-09-30T02:09:03.384Z,89.85
2018-09-30T02:10:03.362Z,90.23
2018-09-30T02:11:03.337Z,89.75
2018-09-30T02:12:03.322Z,89.85
2018-09-30T02:13:03.293Z,89.94
2018-09-30T02:14:03.273Z,90.42
2018-09-30T02:15:03.252Z,90.47
2018-09-30T02:16:03.226Z,90.56
2018-09-30T02:17:03.204Z,91.13
2018-09-30T02:18:03.180Z,90.85
2018-09-30T02:19:03.156Z,90.85
2018-09-30T02:20:03.137Z,90.75
2018-09-30T02:21:03.112Z,90.75
2018-09-30T02:22:03.089Z,90.94
2018-09-30T02:23:03.068Z,90.75
2018-09-30T02:24:03.046Z,91.13
2018-09-30T02:25:03.025Z,91.33
2018-09-30T02:26:03.000Z,91.33
2018-09-30T02:27:02.979Z,91.23
2018-09-30T02:28:02.957Z,91.13
2018-09-30T02:29:02.935Z,90.47
2018-09-30T02:30:02.910Z,90.94
2018-09-30T02:31:02.886Z,90.75
2018-09-30T02:32:02.864Z,90.75
2018-09-30T02:33:02.871Z,90.66
2018-09-30T02:34:02.822Z,90.37
2018-09-30T02:35:02.809Z,90.75
2018-09-30T02:36:02.775Z,90.94
2018-09-30T02:37:02.754Z,90.94
2018-09-30T02:38:02.731Z,91.23
2018-09-30T02:39:02.710Z,90.94
2018-09-30T02:40:02.692Z,91.33
2018-09-30T02:41:02.663Z,90.85
2018-09-30T02:42:02.645Z,91.33
2018-09-30T02:43:02.618Z,90.94
2018-09-30T02:44:02.594Z,91.33
2018-09-30T02:45:02.578Z,90.94
2018-09-30T02:46:02.550Z,91.23
2018-09-30T02:47:02.527Z,91.04
2018-09-30T02:48:02.505Z,91.23
2018-09-30T02:49:02.484Z,90.75
2018-09-30T02:50:02.463Z,90.66
2018-09-30T02:51:02.437Z,90.28
2018-09-30T02:52:02.426Z,90.56
2018-09-30T02:53:02.393Z,90.37
2018-09-30T02:54:02.369Z,90.37
2018-09-30T02:55:02.346Z,91.04
2018-09-30T02:56:02.330Z,91.13
2018-09-30T02:57:02.303Z,91.42
2018-09-30T02:58:02.280Z,90.94
2018-09-30T02:59:02.264Z,90.75
2018-09-30T03:00:02.237Z,90.56
2018-09-30T03:01:02.212Z,90.75
2018-09-30T03:02:02.194Z,91.33
2018-09-30T03:03:02.167Z,91.13
2018-09-30T03:04:02.144Z,91.66
2018-09-30T03:05:02.124Z,91.89
2018-09-30T03:06:02.107Z,91.28
2018-09-30T03:07:02.084Z,91.56
2018-09-30T03:08:02.054Z,91.80
2018-09-30T03:09:02.030Z,91.71
2018-09-30T03:10:02.009Z,91.80
2018-09-30T03:11:01.986Z,91.52
2018-09-30T03:12:01.962Z,91.71
2018-09-30T03:13:01.943Z,91.71
2018-09-30T03:14:01.918Z,91.04
2018-09-30T03:15:01.897Z,91.80
2018-09-30T03:16:01.874Z,91.42
2018-09-30T03:17:01.852Z,90.85
2018-09-30T03:18:01.870Z,90.75
2018-09-30T03:19:01.819Z,90.66
2018-09-30T03:20:01.780Z,90.75
2018-09-30T03:21:01.761Z,90.85
2018-09-30T03:22:01.736Z,90.75
2018-09-30T03:23:01.723Z,90.85
2018-09-30T03:24:01.690Z,90.85
2018-09-30T03:25:01.672Z,90.75
2018-09-30T03:26:01.644Z,90.85
2018-09-30T03:27:01.623Z,90.75
2018-09-30T03:28:01.599Z,90.61
2018-09-30T03:29:01.581Z,90.52
2018-09-30T03:30:01.559Z,90.99
2018-09-30T03:31:01.530Z,91.13
2018-09-30T03:32:01.510Z,90.90
2018-09-30T03:33:01.485Z,90.94
2018-09-30T03:34:01.466Z,90.90
2018-09-30T03:35:01.439Z,90.61
2018-09-30T03:36:01.422Z,90.71
2018-09-30T03:37:01.397Z,90.56
2018-09-30T03:38:01.373Z,90.75
2018-09-30T03:39:01.352Z,90.85
2018-09-30T03:40:01.329Z,90.56
2018-09-30T03:41:01.303Z,90.80
2018-09-30T03:42:01.284Z,90.52
2018-09-30T03:43:01.256Z,90.61
2018-09-30T03:44:01.266Z,90.61
2018-09-30T03:45:01.213Z,91.09
2018-09-30T03:46:01.261Z,90.71
2018-09-30T03:47:01.167Z,90.80
2018-09-30T03:48:01.144Z,90.23
2018-09-30T03:49:01.121Z,90.19
2018-09-30T03:50:01.099Z,90.37
2018-09-30T03:51:01.075Z,90.56
2018-09-30T03:52:01.052Z,89.80
2018-09-30T03:53:01.032Z,89.71
2018-09-30T03:54:01.008Z,89.80
2018-09-30T03:55:00.983Z,89.52
2018-09-30T03:56:00.959Z,90.00
2018-09-30T03:57:00.938Z,89.80
2018-09-30T03:58:00.917Z,89.61
2018-09-30T03:59:00.891Z,89.57
2018-09-30T04:00:00.869Z,90.33
2018-09-30T04:01:00.853Z,90.33
2018-09-30T04:02:00.823Z,90.33
2018-09-30T04:03:00.800Z,89.95
2018-09-30T04:04:00.781Z,90.23
2018-09-30T04:05:00.754Z,90.33
2018-09-30T04:06:00.753Z,90.23
2018-09-30T04:07:00.708Z,89.76
2018-09-30T04:08:00.684Z,90.42
2018-09-30T04:09:00.663Z,90.61
2018-09-30T04:10:00.726Z,90.23
2018-09-30T04:11:00.631Z,90.33
2018-09-30T04:12:00.597Z,90.23
2018-09-30T04:13:00.569Z,90.33
2018-09-30T04:14:00.548Z,90.28
2018-09-30T04:15:00.525Z,90.80
2018-09-30T04:16:00.505Z,90.52
2018-09-30T04:17:00.567Z,90.90
2018-09-30T04:18:00.479Z,91.09
2018-09-30T04:19:00.439Z,90.85
2018-09-30T04:20:00.410Z,90.71
2018-09-30T04:21:00.388Z,90.90
2018-09-30T04:22:00.366Z,90.52
2018-09-30T04:23:00.360Z,90.42
2018-09-30T04:24:00.319Z,90.71
2018-09-30T04:25:00.300Z,90.80
2018-09-30T04:26:00.274Z,90.33
2018-09-30T04:27:00.248Z,90.80
2018-09-30T04:28:00.227Z,90.61
2018-09-30T04:29:00.206Z,90.61
2018-09-30T04:30:00.181Z,90.09
2018-09-30T04:31:00.159Z,90.00
2018-09-30T04:32:00.138Z,90.14
2018-09-30T04:33:00.111Z,90.28
2018-09-30T04:34:00.090Z,90.23
2018-09-30T04:35:00.068Z,90.28
2018-09-30T04:36:00.043Z,90.52
2018-09-30T04:37:00.021Z,90.33
2018-09-30T04:37:59.997Z,90.05
2018-09-30T04:38:59.972Z,90.33
2018-09-30T04:39:59.953Z,90.05
2018-09-30T04:40:59.927Z,90.90
2018-09-30T04:41:59.915Z,90.71
2018-09-30T04:42:59.881Z,90.71
2018-09-30T04:43:59.858Z,90.52
2018-09-30T04:44:59.836Z,91.28
2018-09-30T04:45:59.812Z,90.52
2018-09-30T04:46:59.791Z,90.42
2018-09-30T04:47:59.769Z,90.52
2018-09-30T04:48:59.746Z,90.71
2018-09-30T04:49:59.773Z,90.52
2018-09-30T04:50:59.699Z,90.42
2018-09-30T04:51:59.677Z,89.86
2018-09-30T04:52:59.650Z,90.23
2018-09-30T04:53:59.631Z,89.67
2018-09-30T04:54:59.603Z,90.42
2018-09-30T04:55:59.581Z,90.90
2018-09-30T04:56:59.566Z,90.61
2018-09-30T04:57:59.535Z,91.09
2018-09-30T04:58:59.531Z,90.71
2018-09-30T04:59:59.492Z,91.09
2018-09-30T05:00:59.466Z,90.71
2018-09-30T05:01:59.444Z,90.90
2018-09-30T05:02:59.419Z,91.28
2018-09-30T05:03:59.395Z,90.90
2018-09-30T05:04:59.373Z,91.47
2018-09-30T05:05:59.350Z,91.66
2018-09-30T05:06:59.328Z,91.09
2018-09-30T05:07:59.305Z,90.90
2018-09-30T05:08:59.283Z,91.09
2018-09-30T05:09:59.258Z,91.28
2018-09-30T05:10:59.233Z,90.61
2018-09-30T05:11:59.212Z,91.28
2018-09-30T05:12:59.188Z,91.28
2018-09-30T05:13:59.168Z,90.52
2018-09-30T05:14:59.142Z,90.80
2018-09-30T05:15:59.175Z,90.90
2018-09-30T05:16:59.095Z,90.80
2018-09-30T05:17:59.075Z,90.90
2018-09-30T05:18:59.051Z,90.80
2018-09-30T05:19:59.033Z,90.71
2018-09-30T05:20:59.003Z,90.90
2018-09-30T05:21:58.982Z,90.71
2018-09-30T05:22:58.961Z,90.23
2018-09-30T05:23:58.935Z,90.05
2018-09-30T05:24:58.909Z,90.23
2018-09-30T05:25:58.893Z,90.80
2018-09-30T05:26:58.863Z,90.90
2018-09-30T05:27:58.838Z,91.38
2018-09-30T05:28:58.816Z,90.33
2018-09-30T05:29:58.833Z,91.28
2018-09-30T05:30:58.770Z,91.09
2018-09-30T05:31:58.751Z,91.38
2018-09-30T05:32:58.728Z,90.99
2018-09-30T05:33:58.700Z,91.09
2018-09-30T05:34:58.678Z,91.09
2018-09-30T05:35:58.653Z,91.66
2018-09-30T05:36:58.672Z,90.90
2018-09-30T05:37:58.633Z,90.71
2018-09-30T05:38:58.587Z,90.71
2018-09-30T05:39:58.563Z,90.90
2018-09-30T05:40:58.549Z,90.71
2018-09-30T05:41:58.518Z,90.61
2018-09-30T05:42:58.491Z,90.71
2018-09-30T05:43:58.468Z,90.99
2018-09-30T05:44:58.445Z,91.19
2018-09-30T05:45:58.451Z,90.90
2018-09-30T05:46:58.398Z,90.90
2018-09-30T05:47:58.399Z,91.09
2018-09-30T05:48:58.367Z,90.61
2018-09-30T05:49:58.332Z,90.71
2018-09-30T05:50:58.305Z,91.19
2018-09-30T05:51:58.282Z,91.38
2018-09-30T05:52:58.262Z,90.80
2018-09-30T05:53:58.236Z,91.85
2018-09-30T05:54:58.213Z,90.99
2018-09-30T05:55:58.189Z,91.28
2018-09-30T05:56:58.171Z,91.09
2018-09-30T05:57:58.165Z,91.09
2018-09-30T05:58:58.119Z,90.99
2018-09-30T05:59:58.098Z,91.09
2018-09-30T06:00:58.074Z,91.38
2018-09-30T06:01:58.051Z,90.99
2018-09-30T06:02:58.026Z,90.90
2018-09-30T06:03:58.110Z,90.99
2018-09-30T06:04:57.980Z,91.09
2018-09-30T06:05:57.961Z,91.56
2018-09-30T06:06:57.936Z,91.66
2018-09-30T06:07:57.914Z,91.56
2018-09-30T06:08:57.937Z,91.28
2018-09-30T06:09:57.886Z,91.66
2018-09-30T06:10:57.841Z,91.66
2018-09-30T06:11:57.817Z,91.47
2018-09-30T06:12:57.794Z,91.47
2018-09-30T06:13:57.790Z,91.66
2018-09-30T06:14:57.751Z,91.66
2018-09-30T06:15:57.806Z,91.19
2018-09-30T06:16:57.701Z,91.13
2018-09-30T06:17:57.676Z,91.13
2018-09-30T06:18:57.656Z,91.71
2018-09-30T06:19:57.696Z,91.71
2018-09-30T06:20:57.609Z,91.33
2018-09-30T06:21:57.588Z,91.71
2018-09-30T06:22:57.560Z,91.89
2018-09-30T06:23:57.561Z,91.71
2018-09-30T06:24:57.520Z,91.61
2018-09-30T06:25:57.492Z,91.33
2018-09-30T06:26:57.469Z,90.94
2018-09-30T06:27:57.444Z,90.94
2018-09-30T06:28:57.423Z,90.85
2018-09-30T06:29:57.399Z,91.13
2018-09-30T06:30:57.374Z,91.61
2018-09-30T06:31:57.372Z,91.33
2018-09-30T06:32:57.328Z,91.71
2018-09-30T06:33:57.306Z,91.71
2018-09-30T06:34:57.290Z,91.71
2018-09-30T06:35:57.260Z,91.71
2018-09-30T06:36:57.247Z,91.71
2018-09-30T06:37:57.220Z,91.52
2018-09-30T06:38:57.187Z,91.71
2018-09-30T06:39:57.164Z,91.89
2018-09-30T06:40:57.141Z,92.13
2018-09-30T06:41:57.127Z,92.13
2018-09-30T06:42:57.095Z,92.41
2018-09-30T06:43:57.073Z,92.22
2018-09-30T06:44:57.113Z,92.41
2018-09-30T06:45:57.026Z,92.51
2018-09-30T06:46:57.002Z,92.70
2018-09-30T06:47:56.981Z,93.08
2018-09-30T06:48:56.958Z,92.56
2018-09-30T06:49:56.935Z,92.51
2018-09-30T06:50:57.000Z,91.56
2018-09-30T06:51:56.891Z,92.22
2018-09-30T06:52:56.867Z,92.41
2018-09-30T06:53:56.841Z,91.94
2018-09-30T06:54:56.829Z,91.94
2018-09-30T06:55:56.796Z,90.89
2018-09-30T06:56:56.772Z,90.42
2018-09-30T06:57:56.751Z,89.66
2018-09-30T06:58:56.725Z,89.66
2018-09-30T06:59:56.702Z,89.66
2018-09-30T07:00:56.680Z,89.00
2018-09-30T07:01:56.657Z,88.23
2018-09-30T07:02:56.634Z,88.04
2018-09-30T07:03:56.616Z,87.76
2018-09-30T07:04:56.600Z,87.38
2018-09-30T07:05:56.564Z,87.76
2018-09-30T07:06:56.542Z,88.18
2018-09-30T07:07:56.518Z,88.09
2018-09-30T07:08:56.497Z,88.56
2018-09-30T07:09:56.474Z,89.32
2018-09-30T07:10:56.502Z,89.89
2018-09-30T07:11:56.432Z,90.28
2018-09-30T07:12:56.411Z,89.42
2018-09-30T07:13:56.416Z,89.23
2018-09-30T07:14:56.357Z,88.37
2018-09-30T07:15:56.343Z,89.89
2018-09-30T07:17:13.615Z,89.61
2018-09-30T07:18:49.663Z,89.99
2018-09-30T07:19:49.618Z,89.89
2018-09-30T07:21:42.952Z,89.23
2018-09-30T07:22:43.010Z,88.94
2018-09-30T07:24:36.275Z,89.70
2018-09-30T07:25:36.235Z,89.23
2018-09-30T07:27:29.565Z,89.14
2018-09-30T07:28:29.536Z,89.32
2018-09-30T07:30:23.890Z,89.70
2018-09-30T07:31:23.843Z,89.65
2018-09-30T07:33:17.196Z,89.27
2018-09-30T07:34:17.147Z,87.46
2018-09-30T07:36:10.480Z,85.56
2018-09-30T07:37:10.451Z,85.75
2018-09-30T07:39:04.815Z,84.99
2018-09-30T07:40:04.764Z,84.23
2018-09-30T07:41:58.099Z,83.75
2018-09-30T07:42:58.074Z,83.65
2018-09-30T07:44:51.424Z,83.47
2018-09-30T07:45:51.376Z,83.47
2018-09-30T07:47:44.716Z,83.28
2018-09-30T07:48:44.684Z,83.47
2018-09-30T07:50:38.040Z,83.47
2018-09-30T07:51:37.990Z,84.08
2018-09-30T07:53:31.325Z,83.70
2018-09-30T07:54:31.325Z,83.51
2018-09-30T07:56:25.655Z,82.93
2018-09-30T07:57:25.604Z,83.94
2018-09-30T07:59:18.967Z,84.94
2018-09-30T08:00:18.915Z,84.65
2018-09-30T08:02:12.247Z,82.56
2018-09-30T08:03:12.219Z,82.08
2018-09-30T08:05:05.574Z,81.70
2018-09-30T08:06:05.531Z,81.79
2018-09-30T08:07:59.860Z,80.94
2018-09-30T08:08:59.830Z,81.23
2018-09-30T08:10:53.182Z,81.13
2018-09-30T08:11:53.136Z,81.55
2018-09-30T08:13:46.474Z,82.08
2018-09-30T08:14:46.448Z,81.89
2018-09-30T08:16:39.953Z,81.26
2018-09-30T08:17:39.757Z,81.36
2018-09-30T08:19:33.085Z,81.07
2018-09-30T08:20:33.058Z,82.69
2018-09-30T08:22:27.416Z,80.12
2018-09-30T08:23:27.365Z,80.12
2018-09-30T08:25:20.716Z,79.64
2018-09-30T08:26:20.670Z,80.44
2018-09-30T08:28:14.020Z,80.44
2018-09-30T08:29:13.989Z,81.40
2018-09-30T08:31:07.344Z,80.35
2018-09-30T08:32:07.297Z,80.26
2018-09-30T08:34:00.633Z,79.02
2018-09-30T08:35:00.657Z,78.06
2018-09-30T08:36:54.026Z,78.25
2018-09-30T08:37:53.979Z,78.44
2018-09-30T08:39:47.402Z,78.16
2018-09-30T08:40:47.283Z,78.64
2018-09-30T08:42:40.643Z,77.91
2018-09-30T08:43:40.635Z,78.01
2018-09-30T08:45:34.950Z,78.10
2018-09-30T08:46:34.958Z,77.34
2018-09-30T08:48:28.235Z,77.34
2018-09-30T08:49:28.289Z,77.91
2018-09-30T08:51:22.563Z,74.67
2018-09-30T08:52:22.516Z,74.29
2018-09-30T08:54:16.855Z,73.52
2018-09-30T08:55:16.827Z,73.52
2018-09-30T08:57:10.183Z,74.19
2018-09-30T08:58:10.137Z,73.81
2018-09-30T09:00:03.487Z,73.43
2018-09-30T09:01:03.443Z,73.37
2018-09-30T09:02:57.844Z,73.37
2018-09-30T09:03:57.799Z,73.08
2018-09-30T09:05:51.093Z,72.71
2018-09-30T09:06:51.059Z,72.32
2018-09-30T09:08:44.417Z,72.89
2018-09-30T09:09:44.394Z,72.23
2018-09-30T09:11:37.727Z,71.46
2018-09-30T09:12:37.679Z,71.56
2018-09-30T09:14:31.019Z,71.27
2018-09-30T09:15:31.048Z,71.46
2018-09-30T09:17:25.404Z,71.46
2018-09-30T09:18:25.348Z,71.84
2018-09-30T09:20:19.688Z,71.37
2018-09-30T09:21:19.661Z,71.50
2018-09-30T09:23:13.016Z,73.03
2018-09-30T09:24:12.971Z,72.45
2018-09-30T09:26:07.308Z,71.59
2018-09-30T09:27:07.280Z,71.12
2018-09-30T09:29:00.634Z,70.73
2018-09-30T09:30:00.598Z,70.64
2018-09-30T09:31:53.925Z,70.83
2018-09-30T09:32:53.954Z,71.31
2018-09-30T09:34:47.253Z,72.45
2018-09-30T09:35:47.206Z,72.45
2018-09-30T09:37:40.570Z,71.50
2018-09-30T09:38:40.518Z,71.31
2018-09-30T09:40:34.866Z,71.41
2018-09-30T09:41:34.829Z,71.21
2018-09-30T09:43:29.185Z,70.45
2018-09-30T09:44:29.139Z,70.54
2018-09-30T09:46:22.476Z,69.21
2018-09-30T09:47:22.450Z,69.59
2018-09-30T09:49:15.806Z,70.58
2018-09-30T09:50:15.761Z,71.82
2018-09-30T09:52:09.098Z,71.92
2018-09-30T09:53:09.072Z,71.92
2018-09-30T09:55:02.428Z,71.53
2018-09-30T09:56:02.383Z,70.77
2018-09-30T09:57:55.726Z,70.29
2018-09-30T09:58:55.813Z,70.29
2018-09-30T10:00:49.056Z,69.82
2018-09-30T10:01:49.014Z,68.38
2018-09-30T10:03:42.385Z,67.81
2018-09-30T10:04:42.321Z,66.85
2018-09-30T10:06:35.663Z,67.71
2018-09-30T10:07:35.636Z,67.71
2018-09-30T10:09:29.009Z,67.81
2018-09-30T10:10:28.993Z,67.91
2018-09-30T10:12:22.310Z,67.71
2018-09-30T10:13:22.422Z,67.71
2018-09-30T10:15:15.717Z,66.85
2018-09-30T10:16:15.594Z,67.43
2018-09-30T10:17:15.575Z,67.43
2018-09-30T10:18:15.553Z,67.24
2018-09-30T10:19:15.533Z,66.79
2018-09-30T10:20:15.513Z,66.03
2018-09-30T10:21:15.491Z,65.84
2018-09-30T10:22:15.479Z,66.22
2018-09-30T10:23:15.450Z,67.08
2018-09-30T10:24:15.429Z,67.46
2018-09-30T10:25:15.408Z,67.55
2018-09-30T10:26:15.386Z,67.08
2018-09-30T10:27:15.365Z,66.60
2018-09-30T10:28:15.345Z,66.60
2018-09-30T10:29:15.328Z,66.31
2018-09-30T10:30:15.308Z,66.22
2018-09-30T10:31:15.296Z,66.89
2018-09-30T10:32:15.263Z,66.79
2018-09-30T10:33:15.242Z,66.99
2018-09-30T10:34:15.221Z,67.36
2018-09-30T10:35:15.200Z,66.79
2018-09-30T10:36:15.181Z,66.60
2018-09-30T10:37:15.161Z,66.41
2018-09-30T10:38:15.150Z,66.31
2018-09-30T10:39:15.300Z,65.84
2018-09-30T10:40:15.098Z,65.84
2018-09-30T10:41:15.077Z,66.60
2018-09-30T10:42:15.057Z,66.13
2018-09-30T10:43:15.079Z,65.07
2018-09-30T10:44:15.021Z,63.73
2018-09-30T10:45:14.995Z,63.39
2018-09-30T10:46:14.976Z,62.81
2018-09-30T10:47:14.952Z,63.19
2018-09-30T10:48:14.968Z,63.67
2018-09-30T10:49:14.912Z,63.10
2018-09-30T10:50:14.893Z,63.10
2018-09-30T10:51:14.875Z,63.57
2018-09-30T10:52:14.850Z,63.86
2018-09-30T10:53:14.832Z,63.57
2018-09-30T10:54:14.810Z,62.62
2018-09-30T10:55:14.845Z,61.95
2018-09-30T10:56:14.772Z,61.66
2018-09-30T10:57:14.769Z,61.19
2018-09-30T10:58:14.728Z,60.13
2018-09-30T10:59:14.710Z,60.90
2018-09-30T11:00:14.686Z,61.57
2018-09-30T11:01:14.669Z,62.14
2018-09-30T11:02:14.646Z,63.00
2018-09-30T11:03:14.627Z,63.00
2018-09-30T11:04:14.607Z,62.81
2018-09-30T11:05:14.584Z,61.66
2018-09-30T11:06:14.568Z,62.14
2018-09-30T11:07:14.545Z,62.62
2018-09-30T11:08:14.524Z,62.81
2018-09-30T11:09:14.505Z,62.52
2018-09-30T11:10:14.556Z,62.04
2018-09-30T11:11:14.465Z,62.62
2018-09-30T11:12:14.451Z,61.22
2018-09-30T11:13:14.423Z,59.59
2018-09-30T11:14:14.402Z,59.78
2018-09-30T11:15:14.383Z,59.01
2018-09-30T11:16:14.428Z,59.69
2018-09-30T11:17:14.341Z,59.69
2018-09-30T11:18:14.324Z,59.78
2018-09-30T11:19:14.300Z,59.97
2018-09-30T11:20:14.281Z,60.45
2018-09-30T11:21:14.259Z,60.35
2018-09-30T11:22:14.241Z,59.88
2018-09-30T11:23:14.219Z,60.45
2018-09-30T11:24:14.199Z,61.02
2018-09-30T11:25:14.179Z,61.22
2018-09-30T11:26:14.160Z,60.55
2018-09-30T11:27:14.143Z,59.97
2018-09-30T11:28:14.119Z,59.88
2018-09-30T11:29:14.101Z,58.63
2018-09-30T11:30:14.079Z,58.54
2018-09-30T11:31:14.060Z,57.87
2018-09-30T11:32:14.042Z,57.77
2018-09-30T11:33:14.019Z,57.97
2018-09-30T11:34:14.001Z,57.77
2018-09-30T11:35:13.978Z,57.87
2018-09-30T11:36:13.960Z,57.97
2018-09-30T11:37:13.940Z,58.83
2018-09-30T11:38:13.920Z,58.73
2018-09-30T11:39:13.900Z,60.16
2018-09-30T11:40:13.879Z,59.49
2018-09-30T11:41:13.863Z,59.69
2018-09-30T11:42:13.846Z,59.52
2018-09-30T11:43:13.818Z,58.86
2018-09-30T11:44:13.799Z,58.56
2018-09-30T11:45:13.779Z,58.66
2018-09-30T11:46:13.761Z,58.56
2018-09-30T11:47:13.811Z,58.18
2018-09-30T11:48:13.720Z,56.56
2018-09-30T11:49:13.702Z,56.17
2018-09-30T11:50:13.686Z,55.88
2018-09-30T11:51:13.660Z,55.98
2018-09-30T11:52:13.641Z,55.88
2018-09-30T11:53:13.621Z,56.08
2018-09-30T11:54:13.605Z,55.79
2018-09-30T11:55:13.581Z,56.17
2018-09-30T11:56:13.562Z,55.88
2018-09-30T11:57:13.544Z,55.88
2018-09-30T11:58:13.522Z,56.08
2018-09-30T11:59:13.503Z,55.79
2018-09-30T12:00:13.484Z,55.88
2018-09-30T12:01:13.528Z,55.60
2018-09-30T12:02:13.472Z,56.08
2018-09-30T12:03:13.423Z,56.08
2018-09-30T12:04:13.406Z,56.84
2018-09-30T12:05:13.385Z,55.88
2018-09-30T12:06:13.366Z,54.93
2018-09-30T12:07:13.365Z,54.64
2018-09-30T12:08:13.328Z,54.26
2018-09-30T12:09:13.307Z,53.59
2018-09-30T12:10:13.286Z,54.57
2018-09-30T12:11:13.267Z,53.78
2018-09-30T12:12:13.256Z,54.55
2018-09-30T12:13:13.228Z,53.88
2018-09-30T12:14:13.213Z,53.78
2018-09-30T12:15:13.188Z,54.48
2018-09-30T12:16:13.168Z,53.23
2018-09-30T12:17:13.148Z,52.37
2018-09-30T12:18:13.131Z,51.89
2018-09-30T12:19:13.110Z,51.42
2018-09-30T12:20:13.091Z,52.37
2018-09-30T12:21:13.070Z,53.04
2018-09-30T12:22:13.051Z,51.89
2018-09-30T12:23:13.032Z,53.04
2018-09-30T12:24:13.012Z,53.23
2018-09-30T12:25:12.996Z,53.42
2018-09-30T12:26:12.972Z,54.00
2018-09-30T12:27:12.952Z,55.24
2018-09-30T12:28:12.934Z,54.48
2018-09-30T12:29:12.919Z,53.91
2018-09-30T12:30:12.894Z,53.23
2018-09-30T12:31:12.879Z,54.38
2018-09-30T12:32:12.855Z,53.91
2018-09-30T12:33:12.840Z,53.52
2018-09-30T12:34:12.816Z,54.00
2018-09-30T12:35:12.796Z,53.04
2018-09-30T12:36:12.776Z,51.63
2018-09-30T12:37:12.759Z,51.06
2018-09-30T12:38:12.739Z,50.77
2018-09-30T12:39:12.752Z,50.00
2018-09-30T12:40:12.699Z,50.67
2018-09-30T12:41:12.681Z,50.67
2018-09-30T12:42:12.660Z,51.08
2018-09-30T12:43:12.640Z,51.08
2018-09-30T12:44:12.623Z,51.28
2018-09-30T12:45:12.604Z,50.03
2018-09-30T12:46:12.583Z,50.05
2018-09-30T12:47:12.564Z,50.12
2018-09-30T12:48:12.553Z,49.00
2018-09-30T12:49:12.527Z,49.29
2018-09-30T12:50:12.507Z,49.29
2018-09-30T12:51:12.497Z,48.13
2018-09-30T12:52:12.471Z,47.94
2018-09-30T12:53:12.449Z,48.61
2018-09-30T12:54:12.434Z,47.94
2018-09-30T12:55:12.416Z,47.94
2018-09-30T12:56:12.396Z,47.37
2018-09-30T12:57:12.373Z,48.52
2018-09-30T12:58:12.499Z,48.23
2018-09-30T12:59:12.334Z,48.23
2018-09-30T13:00:12.317Z,47.85
2018-09-30T13:01:12.300Z,48.13
2018-09-30T13:02:12.283Z,48.71
2018-09-30T13:03:12.259Z,49.60
2018-09-30T13:04:12.241Z,50.15
2018-09-30T13:05:12.225Z,50.53
2018-09-30T13:06:12.205Z,50.73
2018-09-30T13:07:12.184Z,51.30
2018-09-30T13:08:12.167Z,50.24
2018-09-30T13:09:12.148Z,50.24
2018-09-30T13:10:12.129Z,50.15
2018-09-30T13:11:12.115Z,51.30
2018-09-30T13:12:12.092Z,50.53
2018-09-30T13:13:12.092Z,50.34
2018-09-30T13:14:12.057Z,51.30
2018-09-30T13:15:12.037Z,51.32
2018-09-30T13:16:12.018Z,51.51
2018-09-30T13:17:11.997Z,53.44
2018-09-30T13:18:11.984Z,51.90
2018-09-30T13:19:11.961Z,51.14
2018-09-30T13:20:11.943Z,51.90
2018-09-30T13:21:11.927Z,51.93
2018-09-30T13:22:11.908Z,51.45
2018-09-30T13:23:11.888Z,51.47
2018-09-30T13:24:11.868Z,50.32
2018-09-30T13:25:11.850Z,50.03
2018-09-30T13:26:11.832Z,48.43
2018-09-30T13:27:11.815Z,47.39
2018-09-30T13:28:11.822Z,46.74
2018-09-30T13:29:11.779Z,45.32
2018-09-30T13:30:11.760Z,43.68
2018-09-30T13:31:11.742Z,42.84
2018-09-30T13:32:11.725Z,42.84
2018-09-30T13:33:11.706Z,42.16
2018-09-30T13:34:11.690Z,41.71
2018-09-30T13:35:11.671Z,40.76
2018-09-30T13:36:11.653Z,41.03
2018-09-30T13:37:11.645Z,41.61
2018-09-30T13:38:11.620Z,41.34
2018-09-30T13:39:11.601Z,41.34
2018-09-30T13:40:11.674Z,41.44
2018-09-30T13:41:11.666Z,41.14
2018-09-30T13:42:11.553Z,42.49
2018-09-30T13:43:11.540Z,41.57
2018-09-30T13:44:11.518Z,39.94
2018-09-30T13:45:11.500Z,38.91
2018-09-30T13:46:11.499Z,38.12
2018-09-30T13:47:11.468Z,37.85